createdAt,value
2019-04-10T00:00:41.508Z,100388.64
2019-04-10T00:03:25.797Z,100387.36
2019-04-10T00:05:45.629Z,100395.52
2019-04-10T00:08:16.268Z,100399.34
2019-04-10T00:10:46.547Z,100396.76
2019-04-10T00:13:16.773Z,100392.45
2019-04-10T00:15:47.344Z,100395.02
2019-04-10T00:18:17.998Z,100391.11
2019-04-10T00:20:49.092Z,100390.23
2019-04-10T00:23:19.897Z,100389.34
2019-04-10T00:25:50.855Z,100396.61
2019-04-10T00:28:23.371Z,100401.76
2019-04-10T00:30:55.662Z,100399.64
2019-04-10T00:33:27.080Z,100395.34
2019-04-10T00:35:59.532Z,100394.89
2019-04-10T00:38:30.093Z,100394.91
2019-04-10T00:41:00.335Z,100391.48
2019-04-10T00:43:30.884Z,100388.89
2019-04-10T00:46:02.016Z,100398.78
2019-04-10T00:48:32.376Z,100395.33
2019-04-10T00:51:03.373Z,100395.77
2019-04-10T00:53:33.712Z,100387.98
2019-04-10T00:56:04.271Z,100393.16
2019-04-10T00:58:37.434Z,100397.88
2019-04-10T01:01:07.877Z,100401.73
2019-04-10T01:03:46.629Z,100400.92
2019-04-10T01:06:16.445Z,100394.46
2019-04-10T01:08:46.873Z,100387.56
2019-04-10T01:11:17.662Z,100390.55
2019-04-10T01:13:47.984Z,100396.98
2019-04-10T01:16:18.268Z,100389.27
2019-04-10T01:18:48.484Z,100387.52
2019-04-10T01:21:18.716Z,100390.06
2019-04-10T01:23:49.298Z,100393.47
2019-04-10T01:26:19.576Z,100398.17
2019-04-10T01:28:49.843Z,100399.46
2019-04-10T01:31:21.358Z,100387.91
2019-04-10T01:33:52.716Z,100394.75
2019-04-10T01:36:23.312Z,100391.70
2019-04-10T01:38:54.100Z,100395.55
2019-04-10T01:41:24.376Z,100388.25
2019-04-10T01:43:55.216Z,100395.16
2019-04-10T01:46:26.461Z,100402.92
2019-04-10T01:48:57.537Z,100400.74
2019-04-10T01:51:27.876Z,100399.05
2019-04-10T01:53:58.527Z,100402.49
2019-04-10T01:56:32.422Z,100395.58
2019-04-10T01:59:01.373Z,100401.11
2019-04-10T02:01:39.180Z,100402.83
2019-04-10T02:04:10.816Z,100403.66
2019-04-10T02:06:41.371Z,100402.39
2019-04-10T02:09:11.577Z,100405.41
2019-04-10T02:11:41.947Z,100404.97
2019-04-10T02:14:12.468Z,100409.22
2019-04-10T02:16:43.296Z,100416.05
2019-04-10T02:19:14.260Z,100413.52
2019-04-10T02:21:44.687Z,100409.56
2019-04-10T02:24:14.910Z,100409.13
2019-04-10T02:26:45.641Z,100412.05
2019-04-10T02:29:16.128Z,100413.70
2019-04-10T02:31:48.335Z,100403.36
2019-04-10T02:34:19.367Z,100409.69
2019-04-10T02:36:50.813Z,100406.98
2019-04-10T02:39:31.426Z,100418.02
2019-04-10T02:41:54.475Z,100418.41
2019-04-10T02:44:27.969Z,100418.33
2019-04-10T02:46:59.252Z,100419.13
2019-04-10T02:49:29.996Z,100424.67
2019-04-10T02:52:00.297Z,100417.77
2019-04-10T02:54:30.841Z,100427.58
2019-04-10T02:57:01.335Z,100427.17
2019-04-10T02:59:31.561Z,100424.60
2019-04-10T03:02:04.165Z,100415.11
2019-04-10T03:04:35.411Z,100426.31
2019-04-10T03:07:07.729Z,100422.78
2019-04-10T03:09:54.927Z,100425.70
2019-04-10T03:12:10.577Z,100429.94
2019-04-10T03:14:45.179Z,100425.59
2019-04-10T03:17:14.338Z,100427.64
2019-04-10T03:19:45.562Z,100433.14
2019-04-10T03:22:16.636Z,100429.52
2019-04-10T03:24:46.999Z,100439.19
2019-04-10T03:27:19.070Z,100434.83
2019-04-10T03:29:49.679Z,100436.00
2019-04-10T03:32:36.540Z,100444.08
2019-04-10T03:35:18.919Z,100429.91
2019-04-10T03:37:49.209Z,100439.64
2019-04-10T03:40:19.608Z,100431.94
2019-04-10T03:42:49.849Z,100433.90
2019-04-10T03:45:20.278Z,100429.50
2019-04-10T03:47:51.521Z,100436.94
2019-04-10T03:50:23.689Z,100442.86
2019-04-10T03:52:55.881Z,100433.72
2019-04-10T03:55:27.094Z,100441.80
2019-04-10T03:57:57.355Z,100445.04
2019-04-10T04:00:27.982Z,100449.70
2019-04-10T04:02:58.291Z,100454.34
2019-04-10T04:05:28.922Z,100457.09
2019-04-10T04:07:59.239Z,100447.66
2019-04-10T04:10:31.106Z,100449.10
2019-04-10T04:13:01.620Z,100450.64
2019-04-10T04:15:31.976Z,100453.23
2019-04-10T04:18:02.538Z,100473.44
2019-04-10T04:20:34.942Z,100468.57
2019-04-10T04:23:05.880Z,100469.04
2019-04-10T04:25:36.643Z,100477.90
2019-04-10T04:28:06.963Z,100486.62
2019-04-10T04:30:38.917Z,100482.41
2019-04-10T04:33:09.458Z,100483.11
2019-04-10T04:35:40.835Z,100486.28
2019-04-10T04:38:11.404Z,100481.80
2019-04-10T04:40:42.058Z,100482.38
2019-04-10T04:43:12.530Z,100486.38
2019-04-10T04:45:44.254Z,100490.31
2019-04-10T04:48:14.793Z,100499.58
2019-04-10T04:50:47.907Z,100495.39
2019-04-10T04:53:18.375Z,100502.03
2019-04-10T04:55:49.269Z,100508.19
2019-04-10T04:58:20.258Z,100496.28
2019-04-10T05:00:52.215Z,100511.22
2019-04-10T05:03:22.900Z,100511.77
2019-04-10T05:05:54.342Z,100509.75
2019-04-10T05:08:24.570Z,100514.47
2019-04-10T05:10:55.948Z,100508.16
2019-04-10T05:13:26.777Z,100496.38
2019-04-10T05:15:57.568Z,100506.51
2019-04-10T05:18:27.872Z,100509.94
2019-04-10T05:20:58.837Z,100497.68
2019-04-10T05:23:29.246Z,100501.16
2019-04-10T05:26:00.473Z,100503.27
2019-04-10T05:28:31.144Z,100507.69
2019-04-10T05:31:03.001Z,100521.61
2019-04-10T05:33:33.455Z,100503.53
2019-04-10T05:36:04.752Z,100502.86
2019-04-10T05:38:35.482Z,100518.17
2019-04-10T05:41:06.941Z,100505.14
2019-04-10T05:43:38.303Z,100504.75
2019-04-10T05:46:08.985Z,100509.19
2019-04-10T05:48:39.831Z,100532.32
2019-04-10T05:51:10.211Z,100526.68
2019-04-10T05:53:40.849Z,100508.14
2019-04-10T05:56:12.410Z,100508.78
2019-04-10T05:58:42.890Z,100508.80
2019-04-10T06:01:13.693Z,100521.38
2019-04-10T06:03:45.617Z,100508.65
2019-04-10T06:06:16.690Z,100506.43
2019-04-10T06:08:47.095Z,100518.59
2019-04-10T06:11:17.866Z,100521.41
2019-04-10T06:13:48.612Z,100524.98
2019-04-10T06:16:19.548Z,100536.98
2019-04-10T06:18:51.371Z,100528.75
2019-04-10T06:21:23.083Z,100532.28
2019-04-10T06:23:53.979Z,100528.84
2019-04-10T06:26:25.763Z,100537.95
2019-04-10T06:28:56.867Z,100525.77
2019-04-10T06:31:28.576Z,100523.96
2019-04-10T06:34:00.422Z,100526.27
2019-04-10T06:36:31.295Z,100535.92
2019-04-10T06:39:02.582Z,100541.23
2019-04-10T06:41:34.962Z,100526.77
2019-04-10T06:44:06.211Z,100528.16
2019-04-10T06:46:38.881Z,100509.48
2019-04-10T06:49:09.269Z,100533.78
2019-04-10T06:51:40.972Z,100539.70
2019-04-10T06:54:12.969Z,100536.97
2019-04-10T06:56:43.381Z,100538.54
2019-04-10T06:59:14.144Z,100546.01
2019-04-10T07:01:51.349Z,100529.27
2019-04-10T07:04:21.875Z,100522.59
2019-04-10T07:07:00.169Z,100546.70
2019-04-10T07:09:26.996Z,100548.19
2019-04-10T07:12:01.317Z,100546.80
2019-04-10T07:14:32.430Z,100537.22
2019-04-10T07:17:06.757Z,100552.28
2019-04-10T07:19:37.415Z,100536.46
2019-04-10T07:22:12.341Z,100539.61
2019-04-10T07:24:42.616Z,100557.59
2019-04-10T07:27:14.033Z,100566.30
2019-04-10T07:29:44.674Z,100538.94
2019-04-10T07:32:16.886Z,100546.52
2019-04-10T07:34:48.730Z,100549.86
2019-04-10T07:37:21.610Z,100537.33
2019-04-10T07:39:55.065Z,100545.25
2019-04-10T07:42:32.162Z,100534.84
2019-04-10T07:45:00.384Z,100571.78
2019-04-10T07:47:35.626Z,100557.22
2019-04-10T07:50:10.650Z,100570.06
2019-04-10T07:52:41.582Z,100538.34
2019-04-10T07:55:12.816Z,100545.11
2019-04-10T07:57:47.123Z,100541.44
2019-04-10T08:00:16.537Z,100531.06
2019-04-10T08:02:46.966Z,100543.94
2019-04-10T08:05:19.139Z,100564.91
2019-04-10T08:07:56.072Z,100574.30
2019-04-10T08:10:28.420Z,100572.43
2019-04-10T08:13:00.284Z,100565.16
2019-04-10T08:15:31.596Z,100574.11
2019-04-10T08:18:02.603Z,100563.13
2019-04-10T08:20:35.200Z,100549.12
2019-04-10T08:23:07.535Z,100547.44
2019-04-10T08:25:37.354Z,100550.83
2019-04-10T08:28:07.603Z,100560.69
2019-04-10T08:30:37.827Z,100560.72
2019-04-10T08:33:08.040Z,100559.91
2019-04-10T08:35:38.291Z,100563.94
2019-04-10T08:38:09.733Z,100533.89
2019-04-10T08:40:40.481Z,100554.50
2019-04-10T08:43:26.557Z,100548.98
2019-04-10T08:45:56.837Z,100561.12
2019-04-10T08:48:30.459Z,100566.98
2019-04-10T08:51:03.117Z,100571.69
2019-04-10T08:53:34.109Z,100554.84
2019-04-10T08:56:04.985Z,100560.34
2019-04-10T08:58:39.144Z,100550.69
2019-04-10T09:01:09.572Z,100564.66
2019-04-10T09:03:39.783Z,100557.67
2019-04-10T09:06:11.204Z,100527.44
2019-04-10T09:08:43.476Z,100550.22
2019-04-10T09:11:14.717Z,100538.19
2019-04-10T09:13:46.480Z,100562.56
2019-04-10T09:16:18.312Z,100559.03
2019-04-10T09:18:49.822Z,100545.95
2019-04-10T09:21:21.649Z,100550.34
2019-04-10T09:23:56.209Z,100551.30
2019-04-10T09:26:26.479Z,100525.22
2019-04-10T09:28:57.359Z,100544.84
2019-04-10T09:31:29.245Z,100539.58
2019-04-10T09:34:01.231Z,100543.16
2019-04-10T09:36:31.700Z,100534.23
2019-04-10T09:39:03.206Z,100536.83
2019-04-10T09:41:36.234Z,100532.72
2019-04-10T09:44:06.691Z,100538.37
2019-04-10T09:46:39.335Z,100533.91
2019-04-10T09:49:10.056Z,100536.63
2019-04-10T09:51:40.490Z,100511.37
2019-04-10T09:54:11.053Z,100524.34
2019-04-10T09:56:42.454Z,100527.14
2019-04-10T09:59:13.873Z,100496.26
2019-04-10T10:01:46.509Z,100524.03
2019-04-10T10:04:19.538Z,100512.38
2019-04-10T10:06:49.820Z,100501.34
2019-04-10T10:09:20.040Z,100517.06
2019-04-10T10:11:51.369Z,100499.34
2019-04-10T10:14:23.134Z,100505.23
2019-04-10T10:17:06.478Z,100514.53
2019-04-10T10:19:39.142Z,100502.47
2019-04-10T10:22:10.078Z,100467.16
2019-04-10T10:24:42.635Z,100478.63
2019-04-10T10:27:13.590Z,100490.95
2019-04-10T10:29:44.506Z,100481.56
2019-04-10T10:32:15.038Z,100498.62
2019-04-10T10:34:45.238Z,100501.63
2019-04-10T10:37:16.647Z,100512.63
2019-04-10T10:39:47.340Z,100506.27
2019-04-10T10:42:19.330Z,100514.55
2019-04-10T10:44:51.672Z,100522.05
2019-04-10T10:47:22.321Z,100524.05
2019-04-10T10:49:52.860Z,100518.09
2019-04-10T10:52:23.703Z,100502.61
2019-04-10T10:54:54.861Z,100508.09
2019-04-10T10:57:25.208Z,100507.39
2019-04-10T10:59:55.649Z,100507.75
2019-04-10T11:02:25.933Z,100504.37
2019-04-10T11:04:56.390Z,100509.53
2019-04-10T11:07:27.017Z,100505.61
2019-04-10T11:09:58.588Z,100510.97
2019-04-10T11:12:30.369Z,100513.07
2019-04-10T11:15:02.233Z,100515.59
2019-04-10T11:17:35.745Z,100512.33
2019-04-10T11:20:10.125Z,100509.00
2019-04-10T11:22:42.378Z,100507.54
2019-04-10T11:25:19.783Z,100509.11
2019-04-10T11:27:50.271Z,100505.27
2019-04-10T11:30:22.453Z,100497.80
2019-04-10T11:32:52.893Z,100505.29
2019-04-10T11:35:24.274Z,100497.87
2019-04-10T11:37:59.095Z,100499.19
2019-04-10T11:40:28.348Z,100494.91
2019-04-10T11:43:03.326Z,100495.20
2019-04-10T11:45:40.955Z,100491.98
2019-04-10T11:48:05.850Z,100492.89
2019-04-10T11:50:38.613Z,100497.26
2019-04-10T11:53:10.296Z,100490.31
2019-04-10T11:58:17.595Z,100480.84
2019-04-10T12:00:51.788Z,100478.03
2019-04-10T12:03:22.072Z,100480.56
2019-04-10T12:05:52.624Z,100475.61
2019-04-10T12:13:29.058Z,100478.45
2019-04-10T12:16:00.907Z,100479.20
2019-04-10T12:18:32.872Z,100477.75
2019-04-10T12:21:03.910Z,100473.76
2019-04-10T12:23:34.763Z,100469.42
2019-04-10T12:26:05.106Z,100468.78
2019-04-10T12:28:36.104Z,100470.20
2019-04-10T12:31:07.955Z,100467.89
2019-04-10T12:33:38.866Z,100460.63
2019-04-10T12:36:10.696Z,100463.25
2019-04-10T12:38:41.552Z,100458.20
2019-04-10T12:41:12.250Z,100456.48
2019-04-10T12:43:43.186Z,100460.77
2019-04-10T12:46:13.579Z,100451.75
2019-04-10T12:48:45.438Z,100450.64
2019-04-10T12:51:15.865Z,100453.85
2019-04-10T12:53:46.434Z,100440.77
2019-04-10T12:56:17.534Z,100437.48
2019-04-10T12:58:51.027Z,100434.83
2019-04-10T13:01:21.335Z,100442.98
2019-04-10T13:03:51.902Z,100437.88
2019-04-10T13:06:24.261Z,100437.50
2019-04-10T13:09:05.237Z,100434.24
2019-04-10T13:11:28.944Z,100436.95
2019-04-10T13:14:00.085Z,100434.24
2019-04-10T13:16:32.121Z,100436.34
2019-04-10T13:19:02.834Z,100437.80
2019-04-10T13:21:33.413Z,100438.33
2019-04-10T13:24:05.652Z,100435.98
2019-04-10T13:26:35.965Z,100433.42
2019-04-10T13:29:06.215Z,100433.84
2019-04-10T13:31:38.485Z,100434.95
2019-04-10T13:34:09.018Z,100431.92
2019-04-10T13:36:41.891Z,100432.94
2019-04-10T13:39:17.742Z,100439.36
2019-04-10T13:41:48.443Z,100430.41
2019-04-10T13:44:18.735Z,100433.52
2019-04-10T13:46:49.082Z,100428.41
2019-04-10T13:49:19.931Z,100439.83
2019-04-10T13:51:50.355Z,100437.44
2019-04-10T13:54:20.796Z,100433.50
2019-04-10T13:56:53.105Z,100441.08
2019-04-10T13:59:23.446Z,100438.33
2019-04-10T14:01:56.325Z,100435.16
2019-04-10T14:04:27.232Z,100437.02
2019-04-10T14:06:59.789Z,100445.62
2019-04-10T14:09:41.469Z,100438.01
2019-04-10T14:12:03.866Z,100448.92
2019-04-10T14:14:36.967Z,100444.64
2019-04-10T14:17:08.983Z,100451.94
2019-04-10T14:19:39.496Z,100446.89
2019-04-10T14:22:09.801Z,100446.87
2019-04-10T14:24:45.249Z,100441.55
2019-04-10T14:27:16.264Z,100438.63
2019-04-10T14:29:46.949Z,100443.28
2019-04-10T14:32:19.294Z,100443.70
2019-04-10T14:34:50.485Z,100446.92
2019-04-10T14:37:21.527Z,100439.81
2019-04-10T14:39:51.756Z,100440.22
2019-04-10T14:42:22.359Z,100446.75
2019-04-10T14:44:53.661Z,100450.51
2019-04-10T14:47:25.622Z,100446.27
2019-04-10T14:49:56.991Z,100446.55
2019-04-10T14:52:28.097Z,100449.66
2019-04-10T14:54:59.622Z,100452.59
2019-04-10T14:57:30.812Z,100448.95
2019-04-10T15:00:01.158Z,100444.45
2019-04-10T15:02:34.818Z,100453.66
2019-04-10T15:05:08.188Z,100450.52
2019-04-10T15:07:39.433Z,100456.27
2019-04-10T15:10:11.457Z,100457.66
2019-04-10T15:12:42.037Z,100453.81
2019-04-10T15:15:12.671Z,100456.03
2019-04-10T15:17:44.998Z,100456.39
2019-04-10T15:20:17.348Z,100457.94
2019-04-10T15:22:47.828Z,100464.72
2019-04-10T15:25:18.052Z,100458.65
2019-04-10T15:27:49.657Z,100454.98
2019-04-10T15:30:20.274Z,100462.97
2019-04-10T15:32:50.731Z,100459.66
2019-04-10T15:35:22.016Z,100461.27
2019-04-10T15:37:52.217Z,100463.15
2019-04-10T15:40:26.949Z,100463.94
2019-04-10T15:42:58.956Z,100467.56
2019-04-10T15:45:30.215Z,100470.41
2019-04-10T15:48:02.021Z,100467.56
2019-04-10T15:50:34.668Z,100464.93
2019-04-10T15:53:07.584Z,100469.56
2019-04-10T15:55:38.211Z,100472.16
2019-04-10T15:58:08.876Z,100467.69
2019-04-10T16:00:39.254Z,100483.64
2019-04-10T16:03:11.737Z,100485.72
2019-04-10T16:05:42.189Z,100489.41
2019-04-10T16:08:18.380Z,100490.53
2019-04-10T16:10:57.257Z,100488.63
2019-04-10T16:13:30.840Z,100491.55
2019-04-10T16:16:07.312Z,100507.83
2019-04-10T16:18:38.725Z,100499.38
2019-04-10T16:21:10.356Z,100500.52
2019-04-10T16:23:47.591Z,100498.94
2019-04-10T16:26:18.826Z,100509.47
2019-04-10T16:28:59.912Z,100512.19
2019-04-10T16:31:30.306Z,100511.45
2019-04-10T16:34:00.944Z,100503.78
2019-04-10T16:36:31.668Z,100510.84
2019-04-10T16:39:02.921Z,100516.33
2019-04-10T16:41:35.514Z,100517.73
2019-04-10T16:44:06.836Z,100520.75
2019-04-10T16:46:38.342Z,100512.64
2019-04-10T16:49:10.723Z,100518.80
2019-04-10T16:51:40.970Z,100518.92
2019-04-10T16:54:11.181Z,100519.03
2019-04-10T16:56:42.736Z,100527.77
2019-04-10T16:59:14.185Z,100537.66
2019-04-10T17:01:45.110Z,100532.63
2019-04-10T17:04:15.392Z,100534.30
2019-04-10T17:06:46.362Z,100537.97
2019-04-10T17:09:22.792Z,100541.53
2019-04-10T17:11:53.801Z,100546.71
2019-04-10T17:14:24.554Z,100547.68
2019-04-10T17:16:55.740Z,100545.21
2019-04-10T17:19:26.152Z,100549.98
2019-04-10T17:21:56.714Z,100558.66
2019-04-10T17:24:27.153Z,100554.32
2019-04-10T17:26:57.415Z,100569.47
2019-04-10T17:29:29.227Z,100569.06
2019-04-10T17:31:59.801Z,100566.94
2019-04-10T17:34:30.528Z,100589.38
2019-04-10T17:37:01.235Z,100590.68
2019-04-10T17:39:33.393Z,100603.25
2019-04-10T17:42:04.103Z,100597.64
2019-04-10T17:44:35.892Z,100602.92
2019-04-10T17:47:09.532Z,100606.37
2019-04-10T17:49:39.300Z,100605.08
2019-04-10T17:52:10.385Z,100611.15
2019-04-10T17:54:41.102Z,100607.73
2019-04-10T17:57:11.369Z,100616.38
2019-04-10T17:59:42.742Z,100612.12
2019-04-10T18:02:13.751Z,100617.32
2019-04-10T18:04:44.681Z,100625.95
2019-04-10T18:07:16.273Z,100632.42
2019-04-10T18:09:46.803Z,100627.66
2019-04-10T18:12:17.301Z,100632.34
2019-04-10T18:14:47.557Z,100630.60
2019-04-10T18:17:18.569Z,100629.77
2019-04-10T18:19:49.061Z,100635.36
2019-04-10T18:22:19.272Z,100640.97
2019-04-10T18:24:49.880Z,100641.41
2019-04-10T18:27:20.506Z,100652.19
2019-04-10T18:29:51.765Z,100651.32
2019-04-10T18:32:23.443Z,100658.56
2019-04-10T18:34:54.224Z,100665.90
2019-04-10T18:37:25.630Z,100658.13
2019-04-10T18:39:57.009Z,100659.82
2019-04-10T18:42:28.774Z,100652.90
2019-04-10T18:44:59.511Z,100652.45
2019-04-10T18:47:32.402Z,100648.14
2019-04-10T18:50:02.870Z,100646.00
2019-04-10T18:52:33.322Z,100663.75
2019-04-10T18:55:04.394Z,100673.33
2019-04-10T18:57:35.720Z,100678.09
2019-04-10T19:00:16.816Z,100677.24
2019-04-10T19:02:52.921Z,100670.82
2019-04-10T19:05:28.134Z,100679.45
2019-04-10T19:07:58.767Z,100676.87
2019-04-10T19:10:29.147Z,100682.48
2019-04-10T19:12:59.553Z,100679.91
2019-04-10T19:15:30.999Z,100680.34
2019-04-10T19:18:01.598Z,100683.77
2019-04-10T19:20:33.074Z,100687.19
2019-04-10T19:23:04.370Z,100679.86
2019-04-10T19:25:36.240Z,100683.31
2019-04-10T19:28:06.963Z,100690.18
2019-04-10T19:30:39.497Z,100688.84
2019-04-10T19:33:10.172Z,100690.53
2019-04-10T19:35:41.365Z,100697.38
2019-04-10T19:38:12.041Z,100684.91
2019-04-10T19:40:43.924Z,100687.52
2019-04-10T19:43:15.934Z,100681.05
2019-04-10T19:45:46.493Z,100687.08
2019-04-10T19:48:17.236Z,100691.80
2019-04-10T19:50:47.821Z,100699.55
2019-04-10T19:53:19.261Z,100694.80
2019-04-10T19:55:50.215Z,100688.34
2019-04-10T19:58:21.771Z,100690.94
2019-04-10T20:00:54.893Z,100698.28
2019-04-10T20:03:25.763Z,100699.61
2019-04-10T20:05:56.062Z,100693.14
2019-04-10T20:08:26.311Z,100694.81
2019-04-10T20:10:58.177Z,100691.83
2019-04-10T20:13:34.628Z,100692.24
2019-04-10T20:16:05.187Z,100694.82
2019-04-10T20:18:35.571Z,100692.67
2019-04-10T20:21:05.955Z,100695.66
2019-04-10T20:23:36.234Z,100697.34
2019-04-10T20:26:07.137Z,100692.56
2019-04-10T20:28:38.672Z,100698.55
2019-04-10T20:31:10.984Z,100698.52
2019-04-10T20:33:41.387Z,100702.45
2019-04-10T20:36:11.647Z,100705.47
2019-04-10T20:38:42.995Z,100703.29
2019-04-10T20:41:14.763Z,100698.19
2019-04-10T20:43:45.079Z,100703.86
2019-04-10T20:46:15.360Z,100706.91
2019-04-10T20:48:46.750Z,100704.33
2019-04-10T20:51:18.660Z,100703.94
2019-04-10T20:53:50.536Z,100698.74
2019-04-10T20:56:20.788Z,100699.98
2019-04-10T20:58:51.022Z,100700.83
2019-04-10T21:01:22.349Z,100716.23
2019-04-10T21:03:52.681Z,100722.66
2019-04-10T21:06:23.309Z,100726.50
2019-04-10T21:08:55.140Z,100726.03
2019-04-10T21:11:25.402Z,100731.16
2019-04-10T21:13:56.577Z,100728.56
2019-04-10T21:16:27.401Z,100730.26
2019-04-10T21:18:58.272Z,100730.69
2019-04-10T21:21:28.574Z,100736.73
2019-04-10T21:23:58.811Z,100722.12
2019-04-10T21:26:30.516Z,100730.26
2019-04-10T21:29:00.835Z,100722.97
2019-04-10T21:31:34.156Z,100724.66
2019-04-10T21:34:15.575Z,100724.61
2019-04-10T21:36:46.563Z,100729.27
2019-04-10T21:39:17.045Z,100722.72
2019-04-10T21:41:48.736Z,100722.30
2019-04-10T21:44:18.997Z,100730.03
2019-04-10T21:46:49.240Z,100728.73
2019-04-10T21:49:19.829Z,100730.84
2019-04-10T21:51:51.620Z,100735.11
2019-04-10T21:54:22.652Z,100747.10
2019-04-10T21:56:53.524Z,100747.89
2019-04-10T21:59:24.779Z,100752.08
2019-04-10T22:01:55.633Z,100762.73
2019-04-10T22:04:25.859Z,100772.10
2019-04-10T22:07:01.460Z,100770.28
2019-04-10T22:09:34.950Z,100774.50
2019-04-10T22:12:23.268Z,100779.92
2019-04-10T22:14:41.895Z,100770.83
2019-04-10T22:17:13.017Z,100773.36
2019-04-10T22:19:43.646Z,100774.20
2019-04-10T22:22:14.618Z,100772.08
2019-04-10T22:24:44.929Z,100775.09
2019-04-10T22:27:15.175Z,100765.61
2019-04-10T22:29:45.398Z,100770.06
2019-04-10T22:32:16.395Z,100758.28
2019-04-10T22:34:46.715Z,100756.72
2019-04-10T22:37:17.246Z,100758.97
2019-04-10T22:39:48.195Z,100750.19
2019-04-10T22:42:19.220Z,100752.00
2019-04-10T22:44:49.857Z,100753.34
2019-04-10T22:47:21.729Z,100756.48
2019-04-10T22:49:52.022Z,100744.95
2019-04-10T22:52:22.260Z,100753.55
2019-04-10T22:54:53.166Z,100745.79
2019-04-10T22:57:23.753Z,100753.54
2019-04-10T22:59:55.147Z,100757.45
2019-04-10T23:02:25.667Z,100747.10
2019-04-10T23:04:55.920Z,100751.45
2019-04-10T23:07:28.155Z,100752.28
2019-04-10T23:09:58.524Z,100747.94
2019-04-10T23:12:29.926Z,100744.04
2019-04-10T23:15:00.858Z,100746.23
2019-04-10T23:17:31.295Z,100736.77
2019-04-10T23:20:02.840Z,100744.14
2019-04-10T23:22:35.546Z,100740.27
2019-04-10T23:25:07.885Z,100738.53
2019-04-10T23:27:38.454Z,100741.97
2019-04-10T23:30:19.532Z,100749.42
2019-04-10T23:32:51.285Z,100740.33
2019-04-10T23:35:22.342Z,100738.16
2019-04-10T23:37:53.119Z,100743.77
2019-04-10T23:40:25.018Z,100750.66
2019-04-10T23:43:04.950Z,100736.48
2019-04-10T23:45:29.354Z,100747.69
2019-04-10T23:48:00.425Z,100728.70
2019-04-10T23:50:32.386Z,100752.53
2019-04-10T23:53:02.986Z,100741.29
2019-04-10T23:55:34.353Z,100736.11
2019-04-10T23:58:05.514Z,100735.70
